• Join FlightAware (Why Join?)
  • Login
  • US Flag GB Flag 
12:21 EST


 

Airport Tracker/Info


-or-


 

Live Flight TrackerFlight Track Log ✈ SWA706 ✈ 18-May-2013 ✈ KSLC - KPHX

Flight Track Log - Related Links

Times and Time Zones

All times are in EDT time to prevent confusion due to time zone crossing. See the SWA706 flight status page for this flight to view local times or setup timezone preferences in your user account.

Time Position Orientation Groundspeed Altitude Reporting Facility
EDT Latitude Longitude Course Direction KTS MPH feet Rate Location/Type
20:44 40.8211 -112.0650 289° West 218 251 8,000  Level Salt Lake Center
20:44 40.8278 -112.1200 279° West 251 289 10,000 3,180 Climbing Salt Lake Center
20:45 40.7900 -112.2175 243° Southwest 317 365 13,100 3,420 Climbing Salt Lake Center
20:46 40.6972 -112.2444 192° South 343 395 17,000 3,720 Climbing Salt Lake Center
20:48 40.5989 -112.2772 194° South 363 418 20,700 3,300 Climbing Salt Lake Center
20:49 40.4956 -112.3092 193° South 382 440 23,800 2,880 Climbing Salt Lake Center
20:50 40.3869 -112.3431 193° South 400 460 26,600 2,640 Climbing Salt Lake Center
20:51 40.2719 -112.3614 187° South 416 479 29,200 2,100 Climbing Salt Lake Center
20:52 40.1494 -112.3622 180° South 441 507 30,900 1,860 Climbing Salt Lake Center
20:53 40.0219 -112.3636 180° South 457 526 33,100 2,160 Climbing Salt Lake Center
20:54 39.8956 -112.3625 180° South 456 525 35,300 1,800 Climbing Salt Lake Center
20:55 39.7422 -112.3661 181° South 458 527 36,800 780 Climbing Salt Lake Center
20:56 39.6078 -112.3667 180° South 477 549 37,000 60 Climbing Salt Lake Center
20:57 39.4792 -112.3686 181° South 464 534 37,000  Level Salt Lake Center
20:58 39.3461 -112.3708 181° South 474 545 37,000  Level Salt Lake Center
20:59 39.2006 -112.3706 180° South 486 559 37,000  Level Salt Lake Center
21:00 39.0650 -112.3731 181° South 487 560 37,000  Level Salt Lake Center
21:01 38.9297 -112.3750 181° South 486 559 37,000  Level Salt Lake Center
21:02 38.7950 -112.3769 181° South 484 557 37,000  Level Salt Lake Center
21:03 38.6597 -112.3783 180° South 485 558 37,000  Level Salt Lake Center
21:04 38.5244 -112.3803 181° South 486 559 37,000  Level Salt Lake Center
21:05 38.3872 -112.3814 180° South 492 566 37,000  Level Salt Lake Center
21:06 38.2497 -112.3825 180° South 493 567 37,000  Level Salt Lake Center
21:07 38.1108 -112.3839 180° South 497 572 37,000  Level Salt Lake Center
21:08 37.9767 -112.3833 180° South 485 558 37,000  Level Salt Lake Center
21:09 37.8450 -112.3844 180° South 473 544 37,000  Level Salt Lake Center
21:10 37.7136 -112.3850 180° South 470 541 37,000  Level Salt Lake Center
21:11 37.5817 -112.3861 180° South 469 540 37,000  Level Salt Lake Center
21:12 37.4506 -112.3867 180° South 468 539 37,000  Level Salt Lake Center
21:13 37.3206 -112.3872 180° South 466 536 37,000  Level Salt Lake Center
21:14 37.1889 -112.3892 181° South 467 537 37,000  Level Salt Lake Center
21:15 37.0564 -112.3897 180° South 470 541 37,000 -360 Level Salt Lake Center
21:15 37.0014 -112.3939 183° South 471 542 36,600 -1,080 Descending Los Angeles Center
21:16 36.8694 -112.3956 181° South 472 543 35,600 -960 Descending Los Angeles Center
21:17 36.7372 -112.3956 180° South 473 544 34,700 -960 Descending Los Angeles Center
21:18 36.6031 -112.3969 180° South 476 548 33,700 -840 Descending Los Angeles Center
21:19 36.4708 -112.3981 180° South 477 549 33,000 -360 Descending Los Angeles Center
21:20 36.3392 -112.3992 180° South 475 547 33,000  Level Los Angeles Center
21:21 36.2061 -112.4008 181° South 476 548 33,000  Level Los Angeles Center
21:22 36.0478 -112.4000 180° South 475 547 33,000  Level Los Angeles Center
21:23 35.9194 -112.4053 182° South 472 543 33,000 -420 Level Los Angeles Center
21:24 35.7875 -112.4144 183° South 472 543 32,200 -1,200 Descending Los Angeles Center
21:25 35.6564 -112.4197 182° South 472 543 30,600 -1,620 Descending Los Angeles Center
21:26 35.5258 -112.4281 183° South 470 541 29,000 -840 Descending Los Angeles Center
21:27 35.3961 -112.4375 183° South 468 539 29,000  Level Los Angeles Center
21:28 35.3442 -112.4261 170° South 473 544 29,000  Level Albuquerque Center
21:29 35.2117 -112.3961 170° South 482 555 29,000  Level Albuquerque Center
21:30 35.0814 -112.3650 169° South 477 549 29,000  Level Albuquerque Center
21:31 34.9247 -112.3306 170° South 477 549 29,000 -360 Level Albuquerque Center
21:32 34.7953 -112.3003 169° South 475 547 28,300 -1,440 Descending Albuquerque Center
21:33 34.6733 -112.2719 169° South 466 536 26,100 -2,280 Descending Albuquerque Center
21:34 34.5517 -112.2444 169° South 452 520 23,700 -2,280 Descending Albuquerque Center
21:35 34.4344 -112.2169 169° South 438 504 21,500 -2,160 Descending Albuquerque Center
21:36 34.3208 -112.1903 169° South 424 488 19,300 -2,220 Descending Albuquerque Center
21:37 34.2097 -112.1639 169° South 413 475 17,000 -1,860 Descending Albuquerque Center
21:38 34.0878 -112.1364 169° South 375 432 15,600 -1,440 Descending Albuquerque Center
21:39 33.9969 -112.1139 168° South 340 391 14,100 -1,500 Descending Albuquerque Center
21:40 33.9089 -112.0903 167° South 329 379 12,600 -1,500 Descending Albuquerque Center
21:41 33.8244 -112.0700 169° South 316 364 11,100 -1,320 Descending Albuquerque Center
21:42 33.7431 -112.0497 168° South 303 349 10,000 -540 Descending Albuquerque Center
21:43 33.6625 -112.0364 172° South 293 337 10,000 -60 Level Albuquerque Center
21:44 33.5822 -112.0225 172° South 293 337 9,900 -960 Descending Albuquerque Center
21:45 33.4869 -112.0069 172° South 287 330 8,100 -1,380 Descending Albuquerque Center
21:46 33.4197 -111.9731 157° South 266 306 7,100 -540 Descending Albuquerque Center
21:47 33.3644 -111.9233 143° Southeast 256 295 7,000 -540 Descending Albuquerque Center
21:48 33.3508 -111.8444 102° East 246 283 6,000 -840 Descending Albuquerque Center
21:49 33.3386 -111.7767 102° East 215 247 5,400 -540 Descending Albuquerque Center
21:50 33.3442 -111.7133 84° East 203 234 5,000 -420 Descending Albuquerque Center
21:51 33.3872 -111.7428 330° Northwest 179 206 4,600 -360 Descending Albuquerque Center
21:52 33.4117 -111.7828 306° West 172 198 4,300 -360 Descending Albuquerque Center
21:53 33.4283 -111.8331 292° West 173 199 3,900 -600 Descending Albuquerque Center
21:54 33.4289 -111.8864 271° West 162 186 3,100 -960 Descending Albuquerque Center
21:56 33.4300 -111.9453 271° West 145 167 2,000 -840 Descending Albuquerque Center
21:57 33.4286 -111.9881 268° West 130 150 1,400 -600 Descending Albuquerque Center